createdAt,value
2022-11-27T00:00:39.337Z,33.60
2022-11-27T00:01:39.288Z,34.30
2022-11-27T00:02:40.689Z,34.60
2022-11-27T00:03:40.395Z,32.10
2022-11-27T00:04:39.237Z,29.70
2022-11-27T00:05:39.235Z,31.70
2022-11-27T00:06:39.192Z,31.00
2022-11-27T00:07:39.225Z,32.80
2022-11-27T00:08:39.151Z,33.30
2022-11-27T00:09:39.308Z,35.60
2022-11-27T00:10:39.145Z,31.30
2022-11-27T00:11:39.112Z,33.20
2022-11-27T00:12:39.077Z,37.10
2022-11-27T00:13:39.060Z,34.50
2022-11-27T00:14:39.069Z,30.90
2022-11-27T00:15:39.070Z,31.30
2022-11-27T00:16:39.011Z,35.40
2022-11-27T00:17:38.989Z,32.30
2022-11-27T00:18:38.973Z,36.30
2022-11-27T00:19:39.381Z,35.20
2022-11-27T00:20:38.956Z,33.90
2022-11-27T00:21:38.923Z,33.50
2022-11-27T00:22:38.896Z,34.50
2022-11-27T00:23:38.873Z,34.10
2022-11-27T00:24:39.063Z,35.60
2022-11-27T00:25:38.862Z,35.50
2022-11-27T00:26:38.821Z,32.60
2022-11-27T00:27:38.797Z,35.10
2022-11-27T00:28:38.786Z,35.50
2022-11-27T00:29:38.761Z,36.80
2022-11-27T00:30:38.769Z,32.60
2022-11-27T00:31:38.760Z,36.70
2022-11-27T00:32:38.704Z,35.90
2022-11-27T00:33:38.686Z,32.50
2022-11-27T00:34:38.932Z,31.70
2022-11-27T00:35:38.681Z,34.30
2022-11-27T00:36:38.650Z,29.60
2022-11-27T00:37:38.639Z,30.80
2022-11-27T00:38:39.301Z,34.70
2022-11-27T00:39:39.577Z,30.90
2022-11-27T00:40:38.585Z,30.40
2022-11-27T00:41:38.542Z,30.80
2022-11-27T00:42:38.524Z,33.40
2022-11-27T00:43:44.131Z,29.90
2022-11-27T00:44:40.712Z,26.70
2022-11-27T00:45:38.498Z,33.00
2022-11-27T00:46:38.513Z,33.40
2022-11-27T00:47:38.438Z,33.30
2022-11-27T00:48:38.422Z,30.10
2022-11-27T00:49:38.407Z,34.80
2022-11-27T00:50:38.407Z,29.90
2022-11-27T00:51:38.362Z,32.70
2022-11-27T00:52:38.347Z,32.10
2022-11-27T00:53:38.325Z,34.30
2022-11-27T00:54:38.787Z,35.50
2022-11-27T00:55:38.321Z,31.70
2022-11-27T00:56:38.277Z,34.60
2022-11-27T00:57:38.256Z,27.70
2022-11-27T00:58:38.240Z,31.30
2022-11-27T00:59:38.219Z,29.20
2022-11-27T01:00:38.225Z,30.70
2022-11-27T01:01:38.268Z,34.10
2022-11-27T01:02:38.216Z,32.70
2022-11-27T01:03:38.157Z,33.70
2022-11-27T01:04:38.395Z,30.60
2022-11-27T01:05:38.135Z,30.60
2022-11-27T01:06:38.112Z,31.40
2022-11-27T01:07:38.116Z,32.10
2022-11-27T01:08:39.055Z,30.40
2022-11-27T01:09:38.039Z,30.10
2022-11-27T01:10:38.055Z,30.00
2022-11-27T01:11:38.000Z,29.70
2022-11-27T01:12:37.983Z,28.00
2022-11-27T01:13:37.967Z,28.10
2022-11-27T01:14:38.148Z,29.50
2022-11-27T01:15:37.983Z,28.10
2022-11-27T01:16:42.551Z,27.20
2022-11-27T01:17:39.896Z,27.70
2022-11-27T01:18:37.875Z,30.90
2022-11-27T01:19:37.859Z,28.50
2022-11-27T01:20:37.866Z,29.30
2022-11-27T01:21:37.823Z,29.60
2022-11-27T01:22:37.811Z,25.40
2022-11-27T01:23:37.788Z,26.40
2022-11-27T01:24:38.223Z,29.60
2022-11-27T01:25:37.777Z,28.50
2022-11-27T01:26:37.727Z,28.00
2022-11-27T01:27:37.713Z,25.70
2022-11-27T01:28:37.697Z,27.50
2022-11-27T01:29:37.675Z,28.60
2022-11-27T01:30:37.684Z,28.50
2022-11-27T01:31:37.727Z,29.40
2022-11-27T01:32:37.620Z,31.40
2022-11-27T01:33:37.602Z,29.10
2022-11-27T01:34:37.817Z,31.60
2022-11-27T01:35:37.595Z,27.40
2022-11-27T01:36:37.543Z,29.50
2022-11-27T01:37:37.543Z,29.30
2022-11-27T01:38:37.537Z,27.50
2022-11-27T01:39:37.488Z,30.60
2022-11-27T01:40:37.470Z,31.60
2022-11-27T01:41:37.453Z,26.00
2022-11-27T01:42:37.430Z,28.40
2022-11-27T01:43:37.437Z,26.30
2022-11-27T01:44:37.649Z,26.30
2022-11-27T01:45:37.400Z,26.00
2022-11-27T01:46:37.412Z,27.40
2022-11-27T01:47:37.336Z,27.40
2022-11-27T01:48:37.324Z,26.40
2022-11-27T01:49:37.297Z,31.10
2022-11-27T01:50:37.306Z,26.60
2022-11-27T01:51:37.265Z,29.00
2022-11-27T01:52:37.256Z,27.80
2022-11-27T01:53:37.226Z,29.00
2022-11-27T01:54:37.363Z,26.80
2022-11-27T01:55:37.215Z,28.10
2022-11-27T01:56:37.171Z,26.40
2022-11-27T01:57:37.149Z,23.70
2022-11-27T01:58:37.155Z,27.50
2022-11-27T01:59:37.110Z,29.20
2022-11-27T02:00:37.120Z,27.10
2022-11-27T02:01:37.138Z,31.30
2022-11-27T02:02:37.144Z,28.90
2022-11-27T02:03:37.063Z,28.30
2022-11-27T02:04:37.102Z,29.50
2022-11-27T02:05:37.028Z,27.50
2022-11-27T02:06:36.980Z,28.80
2022-11-27T02:07:37.029Z,23.80
2022-11-27T02:08:36.950Z,29.50
2022-11-27T02:09:36.927Z,25.30
2022-11-27T02:10:36.906Z,26.30
2022-11-27T02:11:36.912Z,27.80
2022-11-27T02:12:36.878Z,28.70
2022-11-27T02:13:36.858Z,28.40
2022-11-27T02:14:36.859Z,27.80
2022-11-27T02:15:36.881Z,27.70
2022-11-27T02:16:36.870Z,27.80
2022-11-27T02:17:36.781Z,27.30
2022-11-27T02:18:36.758Z,23.70
2022-11-27T02:19:36.737Z,25.80
2022-11-27T02:20:36.718Z,27.00
2022-11-27T02:21:36.726Z,27.50
2022-11-27T02:22:36.685Z,26.90
2022-11-27T02:23:36.659Z,28.20
2022-11-27T02:24:36.645Z,30.30
2022-11-27T02:25:36.630Z,24.70
2022-11-27T02:26:36.635Z,27.80
2022-11-27T02:27:36.588Z,25.80
2022-11-27T02:28:36.573Z,27.30
2022-11-27T02:29:36.549Z,28.50
2022-11-27T02:30:36.530Z,26.70
2022-11-27T02:31:36.580Z,25.60
2022-11-27T02:32:36.493Z,30.20
2022-11-27T02:33:36.499Z,27.00
2022-11-27T02:34:36.469Z,27.70
2022-11-27T02:35:36.455Z,26.10
2022-11-27T02:36:36.445Z,25.70
2022-11-27T02:37:36.401Z,25.40
2022-11-27T02:38:36.382Z,25.80
2022-11-27T02:39:36.364Z,24.30
2022-11-27T02:40:36.344Z,25.80
2022-11-27T02:41:36.351Z,23.80
2022-11-27T02:42:36.383Z,27.20
2022-11-27T02:43:36.286Z,24.90
2022-11-27T02:44:36.267Z,24.50
2022-11-27T02:45:36.254Z,25.70
2022-11-27T02:46:36.308Z,25.70
2022-11-27T02:47:36.216Z,25.40
2022-11-27T02:48:36.199Z,24.80
2022-11-27T02:49:36.182Z,25.80
2022-11-27T02:50:36.170Z,28.40
2022-11-27T02:51:36.175Z,24.60
2022-11-27T02:52:36.124Z,24.70
2022-11-27T02:53:36.106Z,25.20
2022-11-27T02:54:36.085Z,23.30
2022-11-27T02:55:36.066Z,23.20
2022-11-27T02:56:36.075Z,26.20
2022-11-27T02:57:36.029Z,25.50
2022-11-27T02:58:36.089Z,26.00
2022-11-27T02:59:35.996Z,26.50
2022-11-27T03:00:35.979Z,29.20
2022-11-27T03:01:36.015Z,32.20
2022-11-27T03:02:35.990Z,26.60
2022-11-27T03:03:35.919Z,29.90
2022-11-27T03:04:35.908Z,31.10
2022-11-27T03:05:35.884Z,26.00
2022-11-27T03:06:35.891Z,29.20
2022-11-27T03:07:35.891Z,28.40
2022-11-27T03:08:35.829Z,28.40
2022-11-27T03:09:35.807Z,27.10
2022-11-27T03:10:35.794Z,27.50
2022-11-27T03:11:35.797Z,32.50
2022-11-27T03:12:35.754Z,29.40
2022-11-27T03:13:35.733Z,25.60
2022-11-27T03:14:35.824Z,31.60
2022-11-27T03:15:35.766Z,26.20
2022-11-27T03:16:35.741Z,27.10
2022-11-27T03:17:35.684Z,28.30
2022-11-27T03:18:35.640Z,29.90
2022-11-27T03:19:35.621Z,27.80
2022-11-27T03:20:35.688Z,27.10
2022-11-27T03:21:35.614Z,27.70
2022-11-27T03:22:35.570Z,30.70
2022-11-27T03:23:35.545Z,28.00
2022-11-27T03:24:35.538Z,25.00
2022-11-27T03:25:36.509Z,31.00
2022-11-27T03:26:35.516Z,29.30
2022-11-27T03:27:35.499Z,27.50
2022-11-27T03:28:35.456Z,28.30
2022-11-27T03:29:35.437Z,28.00
2022-11-27T03:30:35.492Z,29.90
2022-11-27T03:31:35.479Z,31.90
2022-11-27T03:32:35.385Z,28.70
2022-11-27T03:33:35.369Z,28.10
2022-11-27T03:34:35.345Z,32.20
2022-11-27T03:35:35.325Z,24.40
2022-11-27T03:36:35.331Z,32.70
2022-11-27T03:37:35.287Z,27.20
2022-11-27T03:38:35.271Z,28.90
2022-11-27T03:39:35.249Z,31.90
2022-11-27T03:40:35.230Z,32.60
2022-11-27T03:41:35.237Z,30.40
2022-11-27T03:42:35.192Z,27.20
2022-11-27T03:43:35.174Z,28.20
2022-11-27T03:44:35.152Z,32.10
2022-11-27T03:45:35.528Z,30.50
2022-11-27T03:46:37.436Z,31.00
2022-11-27T03:47:35.325Z,28.80
2022-11-27T03:48:35.255Z,27.50
2022-11-27T03:49:35.259Z,29.80
2022-11-27T03:50:35.050Z,30.30
2022-11-27T03:51:35.051Z,28.70
2022-11-27T03:52:35.004Z,33.90
2022-11-27T03:53:34.982Z,32.00
2022-11-27T03:54:34.962Z,30.60
2022-11-27T03:55:34.952Z,31.10
2022-11-27T03:56:34.930Z,34.90
2022-11-27T03:57:34.936Z,31.00
2022-11-27T03:58:34.890Z,31.20
2022-11-27T03:59:34.877Z,29.80
2022-11-27T04:00:34.856Z,28.70
2022-11-27T04:01:34.863Z,26.90
2022-11-27T04:02:40.782Z,28.40
2022-11-27T04:03:35.953Z,27.50
2022-11-27T04:04:34.781Z,30.00
2022-11-27T04:05:34.759Z,30.20
2022-11-27T04:06:34.738Z,26.70
2022-11-27T04:07:34.786Z,31.60
2022-11-27T04:08:34.706Z,31.10
2022-11-27T04:09:34.690Z,31.50
2022-11-27T04:10:34.671Z,31.00
2022-11-27T04:11:34.644Z,31.50
2022-11-27T04:12:34.651Z,27.40
2022-11-27T04:13:34.611Z,27.80
2022-11-27T04:14:34.608Z,29.60
2022-11-27T04:15:34.566Z,26.80
2022-11-27T04:16:34.626Z,31.30
2022-11-27T04:17:34.561Z,33.50
2022-11-27T04:18:34.512Z,26.60
2022-11-27T04:19:34.565Z,27.70
2022-11-27T04:20:34.472Z,27.20
2022-11-27T04:21:34.454Z,30.70
2022-11-27T04:22:34.461Z,27.80
2022-11-27T04:23:34.416Z,30.60
2022-11-27T04:24:34.393Z,30.90
2022-11-27T04:25:34.376Z,30.10
2022-11-27T04:26:34.356Z,31.10
2022-11-27T04:27:34.365Z,29.70
2022-11-27T04:28:34.319Z,30.70
2022-11-27T04:29:34.298Z,31.90
2022-11-27T04:30:34.283Z,31.70
2022-11-27T04:31:34.374Z,32.50
2022-11-27T04:32:34.275Z,32.30
2022-11-27T04:33:34.238Z,35.10
2022-11-27T04:34:34.202Z,33.70
2022-11-27T04:35:34.261Z,31.00
2022-11-27T04:36:38.985Z,30.90
2022-11-27T04:37:36.180Z,28.80
2022-11-27T04:38:34.139Z,34.30
2022-11-27T04:39:34.116Z,35.80
2022-11-27T04:40:34.097Z,29.50
2022-11-27T04:41:34.080Z,32.60
2022-11-27T04:42:34.089Z,37.40
2022-11-27T04:43:34.044Z,33.80
2022-11-27T04:44:34.027Z,31.70
2022-11-27T04:45:34.007Z,34.10
2022-11-27T04:46:34.074Z,38.70
2022-11-27T04:47:33.993Z,37.10
2022-11-27T04:48:33.945Z,32.40
2022-11-27T04:49:33.924Z,34.60
2022-11-27T04:50:33.909Z,33.30
2022-11-27T04:51:33.968Z,35.70
2022-11-27T04:52:33.900Z,32.30
2022-11-27T04:53:33.855Z,36.80
2022-11-27T04:54:33.833Z,28.60
2022-11-27T04:55:33.815Z,34.80
2022-11-27T04:56:33.820Z,35.90
2022-11-27T04:57:33.801Z,36.00
2022-11-27T04:58:33.761Z,32.30
2022-11-27T04:59:33.736Z,34.00
2022-11-27T05:00:33.769Z,34.60
2022-11-27T05:01:33.707Z,32.00
2022-11-27T05:02:33.744Z,33.30
2022-11-27T05:03:33.667Z,31.70
2022-11-27T05:04:33.646Z,31.10
2022-11-27T05:05:33.632Z,33.10
2022-11-27T05:06:33.636Z,29.30
2022-11-27T05:07:33.795Z,38.00
2022-11-27T05:08:33.573Z,31.60
2022-11-27T05:09:33.558Z,31.00
2022-11-27T05:10:33.536Z,33.30
2022-11-27T05:11:33.518Z,32.20
2022-11-27T05:12:33.524Z,30.20
2022-11-27T05:13:33.480Z,35.20
2022-11-27T05:14:33.461Z,34.40
2022-11-27T05:15:33.443Z,33.60
2022-11-27T05:16:33.497Z,34.80
2022-11-27T05:17:33.433Z,33.30
2022-11-27T05:18:33.387Z,32.30
2022-11-27T05:19:33.382Z,34.50
2022-11-27T05:20:33.351Z,35.80
2022-11-27T05:21:33.333Z,34.70
2022-11-27T05:22:33.341Z,33.30
2022-11-27T05:23:33.370Z,34.20
2022-11-27T05:24:33.280Z,32.60
2022-11-27T05:25:33.259Z,32.20
2022-11-27T05:26:33.243Z,32.70
2022-11-27T05:27:33.249Z,31.90
2022-11-27T05:28:33.208Z,32.70
2022-11-27T05:29:33.188Z,32.80
2022-11-27T05:30:33.172Z,29.60
2022-11-27T05:31:33.162Z,35.10
2022-11-27T05:32:34.157Z,32.00
2022-11-27T05:33:33.114Z,34.30
2022-11-27T05:34:33.096Z,37.10
2022-11-27T05:35:33.079Z,34.80
2022-11-27T05:36:33.057Z,35.70
2022-11-27T05:37:33.071Z,35.90
2022-11-27T05:38:33.022Z,34.20
2022-11-27T05:39:33.078Z,33.80
2022-11-27T05:40:32.984Z,35.30
2022-11-27T05:41:32.972Z,38.70
2022-11-27T05:42:32.974Z,35.30
2022-11-27T05:43:32.934Z,38.70
2022-11-27T05:44:32.911Z,34.80
2022-11-27T05:45:32.894Z,33.10
2022-11-27T05:46:32.928Z,39.60
2022-11-27T05:47:32.886Z,36.30
2022-11-27T05:48:32.841Z,35.10
2022-11-27T05:49:32.824Z,33.70
2022-11-27T05:50:32.808Z,36.20
2022-11-27T05:51:32.776Z,33.80
2022-11-27T05:52:33.794Z,36.40
2022-11-27T05:53:32.743Z,35.20
2022-11-27T05:54:32.727Z,39.10
2022-11-27T05:55:32.777Z,36.80
2022-11-27T05:56:32.685Z,32.70
2022-11-27T05:57:32.695Z,35.40
2022-11-27T05:58:32.648Z,36.10
2022-11-27T05:59:32.628Z,35.60
2022-11-27T06:00:32.611Z,35.30
2022-11-27T06:01:32.671Z,33.80
2022-11-27T06:02:32.695Z,33.20
2022-11-27T06:03:32.639Z,33.10
2022-11-27T06:04:32.537Z,43.80
2022-11-27T06:05:32.519Z,46.50
2022-11-27T06:06:32.498Z,41.30
2022-11-27T06:07:32.593Z,43.20
2022-11-27T06:08:32.464Z,45.90
2022-11-27T06:09:32.437Z,43.10
2022-11-27T06:10:32.420Z,47.20
2022-11-27T06:11:32.478Z,45.30
2022-11-27T06:12:32.422Z,48.60
2022-11-27T06:13:32.376Z,45.00
2022-11-27T06:14:32.349Z,53.80
2022-11-27T06:15:32.331Z,54.30
2022-11-27T06:16:32.394Z,53.80
2022-11-27T06:17:32.320Z,54.90
2022-11-27T06:18:32.275Z,54.20
2022-11-27T06:19:32.256Z,64.80
2022-11-27T06:20:32.234Z,54.70
2022-11-27T06:21:32.238Z,56.50
2022-11-27T06:22:32.224Z,60.50
2022-11-27T06:23:32.181Z,63.10
2022-11-27T06:24:32.158Z,63.20
2022-11-27T06:25:32.136Z,66.90
2022-11-27T06:26:32.117Z,60.60
2022-11-27T06:27:32.200Z,64.50
2022-11-27T06:28:32.086Z,60.30
2022-11-27T06:29:32.058Z,56.00
2022-11-27T06:30:32.045Z,57.10
2022-11-27T06:31:32.087Z,56.20
2022-11-27T06:32:32.029Z,65.20
2022-11-27T06:33:31.982Z,58.50
2022-11-27T06:34:31.962Z,58.00
2022-11-27T06:35:31.947Z,59.20
2022-11-27T06:36:31.924Z,56.60
2022-11-27T06:37:31.937Z,57.10
2022-11-27T06:38:31.884Z,59.30
2022-11-27T06:39:31.870Z,61.40
2022-11-27T06:40:31.865Z,56.60
2022-11-27T06:41:31.837Z,64.10
2022-11-27T06:42:31.868Z,55.30
2022-11-27T06:43:31.870Z,62.20
2022-11-27T06:44:32.528Z,55.30
2022-11-27T06:45:31.788Z,63.10
2022-11-27T06:46:31.757Z,63.60
2022-11-27T06:47:31.727Z,63.90
2022-11-27T06:48:31.734Z,66.00
2022-11-27T06:49:31.688Z,59.60
2022-11-27T06:50:31.673Z,65.20
2022-11-27T06:51:31.656Z,65.20
2022-11-27T06:52:34.681Z,56.60
2022-11-27T06:53:32.641Z,67.90
2022-11-27T06:54:31.599Z,60.10
2022-11-27T06:55:31.583Z,73.70
2022-11-27T06:56:31.563Z,68.50
2022-11-27T06:57:31.548Z,62.30
2022-11-27T06:58:31.553Z,59.80
2022-11-27T06:59:31.621Z,68.40
2022-11-27T07:00:31.488Z,59.40
2022-11-27T07:01:31.545Z,68.80
2022-11-27T07:02:31.516Z,56.20
2022-11-27T07:03:31.456Z,73.60
2022-11-27T07:04:31.414Z,58.70
2022-11-27T07:05:31.395Z,67.60
2022-11-27T07:06:31.378Z,62.30
2022-11-27T07:07:31.413Z,57.50
2022-11-27T07:08:31.365Z,63.50
2022-11-27T07:09:31.321Z,68.10
2022-11-27T07:10:31.302Z,67.80
2022-11-27T07:11:31.281Z,64.70
2022-11-27T07:12:31.264Z,64.50
2022-11-27T07:13:31.272Z,63.90
2022-11-27T07:14:31.226Z,62.40
2022-11-27T07:15:31.283Z,67.40
2022-11-27T07:16:31.217Z,65.00
2022-11-27T07:17:31.170Z,63.00
2022-11-27T07:18:31.182Z,59.90
2022-11-27T07:19:31.133Z,61.30
2022-11-27T07:20:31.117Z,65.60
2022-11-27T07:21:31.092Z,64.20
2022-11-27T07:22:31.075Z,61.90
2022-11-27T07:23:31.077Z,66.40
2022-11-27T07:24:31.037Z,57.90
2022-11-27T07:25:31.016Z,61.30
2022-11-27T07:26:31.014Z,61.90
2022-11-27T07:27:30.985Z,61.20
2022-11-27T07:28:30.992Z,59.40
2022-11-27T07:29:30.945Z,65.40
2022-11-27T07:30:30.924Z,65.80
2022-11-27T07:31:31.069Z,59.40
2022-11-27T07:32:30.883Z,59.80
2022-11-27T07:33:30.891Z,56.90
2022-11-27T07:34:30.898Z,62.20
2022-11-27T07:35:30.829Z,58.50
2022-11-27T07:36:30.818Z,57.30
2022-11-27T07:37:30.790Z,51.30
2022-11-27T07:38:30.807Z,52.20
2022-11-27T07:39:54.438Z,51.30
2022-11-27T07:40:32.738Z,49.10
2022-11-27T07:41:33.934Z,46.90
2022-11-27T07:42:39.461Z,46.20
2022-11-27T07:43:32.708Z,47.50
2022-11-27T07:44:30.664Z,48.60
2022-11-27T07:45:30.680Z,49.60
2022-11-27T07:46:30.608Z,49.70
2022-11-27T07:47:31.691Z,57.70
2022-11-27T07:48:30.610Z,51.80
2022-11-27T07:49:30.566Z,56.20
2022-11-27T07:50:30.542Z,56.40
2022-11-27T07:51:30.527Z,57.20
2022-11-27T07:52:30.507Z,64.70
2022-11-27T07:53:30.520Z,57.10
2022-11-27T07:54:30.471Z,54.90
2022-11-27T07:55:30.465Z,63.70
2022-11-27T07:56:30.448Z,53.40
2022-11-27T07:57:30.412Z,53.30
2022-11-27T07:58:30.425Z,58.10
2022-11-27T07:59:30.375Z,54.00
2022-11-27T08:00:30.357Z,60.70
2022-11-27T08:01:30.415Z,50.20
2022-11-27T08:02:30.322Z,56.90
2022-11-27T08:03:30.402Z,60.30
2022-11-27T08:04:30.356Z,59.70
2022-11-27T08:05:30.265Z,59.50
2022-11-27T08:06:30.244Z,61.10
2022-11-27T08:07:30.291Z,56.60
2022-11-27T08:08:30.229Z,47.70
2022-11-27T08:09:30.186Z,54.50
2022-11-27T08:10:30.165Z,59.20
2022-11-27T08:11:30.154Z,55.50
2022-11-27T08:12:30.130Z,51.00
2022-11-27T08:13:30.138Z,56.90
2022-11-27T08:14:30.093Z,56.20
2022-11-27T08:15:30.079Z,58.30
2022-11-27T08:16:30.135Z,55.90
2022-11-27T08:17:30.034Z,55.20
2022-11-27T08:18:30.043Z,53.90
2022-11-27T08:19:30.074Z,55.60
2022-11-27T08:20:29.982Z,58.10
2022-11-27T08:21:29.960Z,55.80
2022-11-27T08:22:29.944Z,57.30
2022-11-27T08:23:29.949Z,56.70
2022-11-27T08:24:29.902Z,52.50
2022-11-27T08:25:29.885Z,51.70
2022-11-27T08:26:29.878Z,48.50
2022-11-27T08:27:29.852Z,55.00
2022-11-27T08:28:29.855Z,48.70
2022-11-27T08:29:33.812Z,54.80
2022-11-27T08:30:30.819Z,50.20
2022-11-27T08:31:29.816Z,49.10
2022-11-27T08:32:29.756Z,50.80
2022-11-27T08:33:33.339Z,48.90
2022-11-27T08:34:29.717Z,53.30
2022-11-27T08:35:30.569Z,46.00
2022-11-27T08:36:29.680Z,47.00
2022-11-27T08:37:29.661Z,44.90
2022-11-27T08:38:29.685Z,49.30
2022-11-27T08:39:29.622Z,47.30
2022-11-27T08:40:29.606Z,50.00
2022-11-27T08:41:29.582Z,43.50
2022-11-27T08:42:29.568Z,43.40
2022-11-27T08:43:29.570Z,47.00
2022-11-27T08:44:29.531Z,44.20
2022-11-27T08:45:30.424Z,43.30
2022-11-27T08:46:29.498Z,45.20
2022-11-27T08:47:29.471Z,41.50
2022-11-27T08:48:29.480Z,41.50
2022-11-27T08:49:29.449Z,37.10
2022-11-27T08:50:29.410Z,34.50
2022-11-27T08:51:30.476Z,38.00
2022-11-27T08:52:29.384Z,39.10
2022-11-27T08:53:29.393Z,38.50
2022-11-27T08:54:29.339Z,39.10
2022-11-27T08:55:30.326Z,37.60
2022-11-27T08:56:29.306Z,34.30
2022-11-27T08:57:29.292Z,40.90
2022-11-27T08:58:29.306Z,39.00
2022-11-27T08:59:29.259Z,36.40
2022-11-27T09:00:29.279Z,34.70
2022-11-27T09:01:29.306Z,35.10
2022-11-27T09:02:29.200Z,35.50
2022-11-27T09:03:29.498Z,32.20
2022-11-27T09:04:29.206Z,35.80
2022-11-27T09:05:29.141Z,31.80
2022-11-27T09:06:29.114Z,28.50
2022-11-27T09:07:30.261Z,27.60
2022-11-27T09:08:29.123Z,28.40
2022-11-27T09:09:29.071Z,30.70
2022-11-27T09:10:29.046Z,28.30
2022-11-27T09:11:29.035Z,26.80
2022-11-27T09:12:29.878Z,25.60
2022-11-27T09:13:29.025Z,23.50
2022-11-27T09:14:28.981Z,26.20
2022-11-27T09:15:28.962Z,21.60
2022-11-27T09:16:29.025Z,25.20
2022-11-27T09:17:28.933Z,19.60
2022-11-27T09:18:28.936Z,19.30
2022-11-27T09:19:28.904Z,19.10
2022-11-27T09:20:28.879Z,18.40
2022-11-27T09:21:28.877Z,23.30
2022-11-27T09:22:28.838Z,18.40
2022-11-27T09:23:28.924Z,19.10
2022-11-27T09:24:28.811Z,20.20
2022-11-27T09:25:28.790Z,19.50
2022-11-27T09:26:28.774Z,20.80
2022-11-27T09:27:28.763Z,20.90
2022-11-27T09:28:31.547Z,23.80
2022-11-27T09:29:29.719Z,20.50
2022-11-27T09:30:28.704Z,17.30
2022-11-27T09:31:29.436Z,19.00
2022-11-27T09:32:28.666Z,19.00
2022-11-27T09:33:28.667Z,18.90
2022-11-27T09:34:29.775Z,19.80
2022-11-27T09:35:28.674Z,19.70
2022-11-27T09:36:28.596Z,20.20
2022-11-27T09:37:28.578Z,20.10
2022-11-27T09:38:28.584Z,20.20
2022-11-27T09:39:28.617Z,21.30
2022-11-27T09:40:28.521Z,20.90
2022-11-27T09:41:28.504Z,22.40
2022-11-27T09:42:28.487Z,22.50
2022-11-27T09:43:28.494Z,18.80
2022-11-27T09:44:28.450Z,23.80
2022-11-27T09:45:28.470Z,21.30
2022-11-27T09:46:28.417Z,19.20
2022-11-27T09:47:28.402Z,20.10
2022-11-27T09:48:28.410Z,19.70
2022-11-27T09:49:28.874Z,20.70
2022-11-27T09:50:28.345Z,23.40
2022-11-27T09:51:28.324Z,19.80
2022-11-27T09:52:28.324Z,23.30
2022-11-27T09:53:28.334Z,23.40
2022-11-27T09:54:28.285Z,19.40
2022-11-27T09:55:28.328Z,21.80
2022-11-27T09:56:28.247Z,23.40
2022-11-27T09:57:28.216Z,20.70
2022-11-27T09:58:29.012Z,19.80
2022-11-27T09:59:28.188Z,19.90
2022-11-27T10:00:28.172Z,19.60
2022-11-27T10:01:34.882Z,16.30
2022-11-27T10:02:30.301Z,19.70
2022-11-27T10:03:28.185Z,18.90
2022-11-27T10:04:30.394Z,21.90
2022-11-27T10:05:30.086Z,20.80
2022-11-27T10:06:29.064Z,19.90
2022-11-27T10:07:28.119Z,18.60
2022-11-27T10:08:28.036Z,19.80
2022-11-27T10:09:28.046Z,19.40
2022-11-27T10:10:28.003Z,18.60
2022-11-27T10:11:28.057Z,16.90
2022-11-27T10:12:27.968Z,19.50
2022-11-27T10:13:27.947Z,21.20
2022-11-27T10:14:27.960Z,19.40
2022-11-27T10:15:27.910Z,19.80
2022-11-27T10:16:27.931Z,22.30
2022-11-27T10:17:27.881Z,20.90
2022-11-27T10:18:27.861Z,23.20
2022-11-27T10:19:27.872Z,22.00
2022-11-27T10:20:27.826Z,21.40
2022-11-27T10:21:27.809Z,21.60
2022-11-27T10:22:27.792Z,20.10
2022-11-27T10:23:27.780Z,18.80
2022-11-27T10:24:27.783Z,20.70
2022-11-27T10:25:27.742Z,18.70
2022-11-27T10:26:27.726Z,20.00
2022-11-27T10:27:27.773Z,18.70
2022-11-27T10:28:28.691Z,19.90
2022-11-27T10:29:27.704Z,18.70
2022-11-27T10:30:27.649Z,20.90
2022-11-27T10:31:27.656Z,18.70
2022-11-27T10:32:54.058Z,19.60
2022-11-27T10:33:29.604Z,21.90
2022-11-27T10:34:27.604Z,19.20
2022-11-27T10:35:27.576Z,20.50
2022-11-27T10:36:27.545Z,22.60
2022-11-27T10:37:27.530Z,18.80
2022-11-27T10:38:27.513Z,19.70
2022-11-27T10:39:28.322Z,18.30
2022-11-27T10:40:27.475Z,17.80
2022-11-27T10:41:48.229Z,18.90
2022-11-27T10:42:29.439Z,18.30
2022-11-27T10:43:27.512Z,15.80
2022-11-27T10:44:27.433Z,17.50
2022-11-27T10:45:27.445Z,19.10
2022-11-27T10:46:27.427Z,18.50
2022-11-27T10:47:30.911Z,18.60
2022-11-27T10:48:29.337Z,18.70
2022-11-27T10:49:27.318Z,16.30
2022-11-27T10:50:27.327Z,15.30
2022-11-27T10:51:27.282Z,16.10
2022-11-27T10:52:27.279Z,19.10
2022-11-27T10:53:27.248Z,15.90
2022-11-27T10:54:27.858Z,16.00
2022-11-27T10:55:27.211Z,16.50
2022-11-27T10:56:27.196Z,17.20
2022-11-27T10:57:27.179Z,19.50
2022-11-27T10:58:27.167Z,16.30
2022-11-27T10:59:32.867Z,17.30
2022-11-27T11:00:29.144Z,17.70
2022-11-27T11:01:27.213Z,15.40
2022-11-27T11:02:27.172Z,16.20
2022-11-27T11:03:27.082Z,15.70
2022-11-27T11:04:42.513Z,15.50
2022-11-27T11:06:29.032Z,16.50
2022-11-27T11:07:27.047Z,16.70
2022-11-27T11:08:26.993Z,16.70
2022-11-27T11:09:26.998Z,15.90
2022-11-27T11:10:26.956Z,16.40
2022-11-27T11:11:26.942Z,18.50
2022-11-27T11:12:26.924Z,15.80
2022-11-27T11:13:26.908Z,15.20
2022-11-27T11:14:26.918Z,15.00
2022-11-27T11:15:26.952Z,17.40
2022-11-27T11:16:31.940Z,15.10
2022-11-27T11:17:28.944Z,16.20
2022-11-27T11:18:26.820Z,14.80
2022-11-27T11:19:26.829Z,12.20
2022-11-27T11:20:26.791Z,16.70
2022-11-27T11:21:26.775Z,15.50
2022-11-27T11:22:26.762Z,12.60
2022-11-27T11:23:26.738Z,13.90
2022-11-27T11:24:26.745Z,16.30
2022-11-27T11:25:26.712Z,15.50
2022-11-27T11:26:26.691Z,13.00
2022-11-27T11:27:26.681Z,15.70
2022-11-27T11:28:26.657Z,13.50
2022-11-27T11:29:26.658Z,11.60
2022-11-27T11:30:26.650Z,14.20
2022-11-27T11:31:26.754Z,14.10
2022-11-27T11:32:26.594Z,15.70
2022-11-27T11:33:26.566Z,15.10
2022-11-27T11:34:26.580Z,13.60
2022-11-27T11:35:26.534Z,14.70
2022-11-27T11:36:26.548Z,17.00
2022-11-27T11:37:26.498Z,14.80
2022-11-27T11:38:26.483Z,14.90
2022-11-27T11:39:26.489Z,14.10
2022-11-27T11:40:26.451Z,14.50
2022-11-27T11:41:26.434Z,18.80
2022-11-27T11:42:26.417Z,16.90
2022-11-27T11:43:26.416Z,17.90
2022-11-27T11:44:26.407Z,16.50
2022-11-27T11:45:29.883Z,14.70
2022-11-27T11:46:28.444Z,15.00
2022-11-27T11:47:26.407Z,12.70
2022-11-27T11:48:26.313Z,16.20
2022-11-27T11:49:26.327Z,14.20
2022-11-27T11:50:26.277Z,15.60
2022-11-27T11:51:29.363Z,14.20
2022-11-27T11:52:27.245Z,15.90
2022-11-27T11:53:26.232Z,14.20
2022-11-27T11:54:26.232Z,14.00
2022-11-27T11:55:26.196Z,16.10
2022-11-27T11:56:26.172Z,13.10
2022-11-27T11:57:26.162Z,12.40
2022-11-27T11:58:26.145Z,18.80
2022-11-27T11:59:26.147Z,12.00
2022-11-27T12:00:30.338Z,12.70
2022-11-27T12:01:28.087Z,12.60
2022-11-27T12:02:27.107Z,14.10
2022-11-27T12:03:26.130Z,12.90
2022-11-27T12:04:26.108Z,15.50
2022-11-27T12:05:26.020Z,12.10
2022-11-27T12:06:26.001Z,13.80
2022-11-27T12:07:26.093Z,15.00
2022-11-27T12:08:25.968Z,14.90
2022-11-27T12:09:25.974Z,13.80
2022-11-27T12:10:25.934Z,13.50
2022-11-27T12:11:25.913Z,12.90
2022-11-27T12:12:25.889Z,13.50
2022-11-27T12:13:29.046Z,11.10
2022-11-27T12:14:27.882Z,15.90
2022-11-27T12:15:25.844Z,12.50
2022-11-27T12:16:25.943Z,13.90
2022-11-27T12:17:25.814Z,15.70
2022-11-27T12:18:25.786Z,13.80
2022-11-27T12:19:25.876Z,14.50
2022-11-27T12:20:25.771Z,17.40
2022-11-27T12:21:25.740Z,14.70
2022-11-27T12:22:25.720Z,14.20
2022-11-27T12:23:25.726Z,12.60
2022-11-27T12:24:25.711Z,13.70
2022-11-27T12:25:25.672Z,15.20
2022-11-27T12:26:25.652Z,13.50
2022-11-27T12:27:25.635Z,16.10
2022-11-27T12:28:25.612Z,13.60
2022-11-27T12:29:25.621Z,14.30
2022-11-27T12:30:25.576Z,11.60
2022-11-27T12:31:25.616Z,12.90
2022-11-27T12:32:25.543Z,12.00
2022-11-27T12:33:25.526Z,12.40
2022-11-27T12:34:25.537Z,13.40
2022-11-27T12:35:25.582Z,14.60
2022-11-27T12:36:25.619Z,12.60
2022-11-27T12:37:25.468Z,13.80
2022-11-27T12:38:25.442Z,13.50
2022-11-27T12:39:25.459Z,14.70
2022-11-27T12:40:25.409Z,12.10
2022-11-27T12:41:25.393Z,12.60
2022-11-27T12:42:25.372Z,11.90
2022-11-27T12:43:25.365Z,11.10
2022-11-27T12:44:25.371Z,11.00
2022-11-27T12:45:25.361Z,13.00
2022-11-27T12:46:25.382Z,10.90
2022-11-27T12:47:25.287Z,12.60
2022-11-27T12:48:25.271Z,11.70
2022-11-27T12:49:25.260Z,10.30
2022-11-27T12:50:25.259Z,14.60
2022-11-27T12:51:25.292Z,12.40
2022-11-27T12:52:25.240Z,12.50
2022-11-27T12:53:25.334Z,11.50